createdAt,value
2019-05-11T00:00:24.516Z,8.47
2019-05-11T00:02:55.791Z,8.47
2019-05-11T00:05:27.048Z,8.54
2019-05-11T00:07:58.272Z,8.61
2019-05-11T00:10:29.549Z,8.64
2019-05-11T00:13:00.836Z,8.63
2019-05-11T00:15:32.107Z,8.69
2019-05-11T00:18:03.330Z,8.72
2019-05-11T00:20:34.580Z,8.76
2019-05-11T00:23:05.862Z,8.74
2019-05-11T00:25:37.031Z,8.83
2019-05-11T00:28:08.240Z,8.84
2019-05-11T00:30:39.499Z,8.83
2019-05-11T00:33:10.726Z,8.88
2019-05-11T00:35:41.976Z,8.80
2019-05-11T00:38:13.171Z,8.81
2019-05-11T00:40:44.423Z,8.82
2019-05-11T00:43:15.670Z,8.76
2019-05-11T00:45:46.909Z,8.71
2019-05-11T00:48:18.058Z,8.69
2019-05-11T00:50:49.304Z,8.72
2019-05-11T00:53:20.411Z,8.70
2019-05-11T00:55:51.674Z,8.67
2019-05-11T00:58:22.903Z,8.73
2019-05-11T01:00:54.151Z,8.73
2019-05-11T01:03:25.305Z,8.77
2019-05-11T01:05:56.545Z,8.82
2019-05-11T01:08:27.830Z,8.74
2019-05-11T01:10:59.051Z,8.76
2019-05-11T01:13:30.314Z,8.66
2019-05-11T01:16:01.558Z,8.64
2019-05-11T01:18:32.878Z,8.71
2019-05-11T01:21:04.019Z,8.73
2019-05-11T01:23:35.094Z,8.82
2019-05-11T01:26:06.264Z,8.85
2019-05-11T01:28:37.441Z,8.83
2019-05-11T01:31:08.654Z,8.91
2019-05-11T01:33:39.827Z,8.89
2019-05-11T01:36:11.065Z,8.91
2019-05-11T01:38:42.358Z,8.94
2019-05-11T01:41:13.548Z,8.95
2019-05-11T01:43:44.687Z,8.95
2019-05-11T01:46:15.918Z,9.05
2019-05-11T01:48:47.180Z,8.91
2019-05-11T01:51:18.412Z,8.95
2019-05-11T01:53:49.622Z,9.03
2019-05-11T01:56:20.883Z,8.93
2019-05-11T01:58:52.082Z,8.86
2019-05-11T02:01:24.202Z,8.84
2019-05-11T02:03:55.558Z,8.95
2019-05-11T02:06:26.777Z,8.99
2019-05-11T02:08:58.020Z,8.97
2019-05-11T02:11:29.264Z,9.02
2019-05-11T02:14:00.463Z,9.05
2019-05-11T02:16:31.647Z,9.15
2019-05-11T02:19:02.914Z,9.16
2019-05-11T02:21:34.136Z,9.20
2019-05-11T02:24:05.382Z,9.15
2019-05-11T02:26:36.616Z,9.11
2019-05-11T02:29:07.717Z,9.01
2019-05-11T02:31:38.874Z,9.02
2019-05-11T02:34:10.146Z,9.12
2019-05-11T02:36:41.332Z,9.12
2019-05-11T02:39:12.549Z,9.19
2019-05-11T02:41:43.848Z,9.14
2019-05-11T02:44:15.126Z,9.11
2019-05-11T02:46:46.392Z,9.12
2019-05-11T02:49:17.594Z,9.06
2019-05-11T02:51:49.615Z,9.18
2019-05-11T02:54:21.683Z,9.12
2019-05-11T02:56:52.926Z,9.24
2019-05-11T02:59:24.122Z,9.19
2019-05-11T03:01:55.244Z,9.18
2019-05-11T03:04:26.523Z,9.17
2019-05-11T03:06:57.763Z,9.17
2019-05-11T03:09:28.980Z,9.12
2019-05-11T03:12:00.195Z,9.10
2019-05-11T03:14:31.483Z,9.13
2019-05-11T03:17:27.659Z,9.11
2019-05-11T03:19:58.844Z,9.11
2019-05-11T03:22:30.031Z,9.16
2019-05-11T03:25:01.250Z,9.13
2019-05-11T03:27:32.511Z,9.24
2019-05-11T03:30:03.729Z,9.18
2019-05-11T03:32:34.971Z,9.11
2019-05-11T03:35:06.527Z,9.11
2019-05-11T03:37:37.755Z,9.05
2019-05-11T03:40:09.605Z,8.96
2019-05-11T03:42:40.853Z,8.99
2019-05-11T03:45:12.593Z,8.95
2019-05-11T03:47:43.829Z,8.93
2019-05-11T03:50:15.467Z,8.97
2019-05-11T03:52:46.689Z,8.95
2019-05-11T03:55:18.465Z,9.06
2019-05-11T03:57:49.631Z,8.92
2019-05-11T04:00:21.126Z,8.96
2019-05-11T04:02:52.458Z,8.87
2019-05-11T04:05:23.662Z,8.91
2019-05-11T04:07:54.904Z,8.84
2019-05-11T04:10:26.121Z,8.86
2019-05-11T04:12:57.383Z,8.84
2019-05-11T04:15:28.578Z,8.81
2019-05-11T04:17:59.728Z,8.86
2019-05-11T04:20:30.996Z,8.80
2019-05-11T04:23:02.249Z,8.86
2019-05-11T04:25:33.502Z,8.87
2019-05-11T04:28:04.733Z,8.92
2019-05-11T04:30:35.983Z,8.86
2019-05-11T04:33:07.283Z,8.83
2019-05-11T04:35:38.527Z,8.99
2019-05-11T04:38:09.708Z,9.02
2019-05-11T04:40:40.966Z,9.07
2019-05-11T04:43:12.184Z,9.10
2019-05-11T04:45:43.357Z,9.02
2019-05-11T04:48:14.512Z,9.06
2019-05-11T04:50:45.738Z,9.01
2019-05-11T04:53:16.878Z,9.06
2019-05-11T04:55:48.126Z,9.15
2019-05-11T04:58:19.352Z,9.14
2019-05-11T05:00:50.626Z,9.14
2019-05-11T05:03:21.856Z,9.13
2019-05-11T05:05:53.089Z,9.10
2019-05-11T05:08:26.715Z,9.22
2019-05-11T05:10:58.589Z,9.17
2019-05-11T05:13:31.520Z,9.10
2019-05-11T05:16:02.877Z,9.17
2019-05-11T05:18:34.066Z,9.19
2019-05-11T05:21:05.241Z,9.28
2019-05-11T05:23:36.338Z,9.28
2019-05-11T05:26:07.495Z,9.34
2019-05-11T05:28:38.641Z,9.30
2019-05-11T05:31:09.914Z,9.33
2019-05-11T05:33:41.180Z,9.33
2019-05-11T05:36:12.377Z,9.41
2019-05-11T05:38:43.601Z,9.46
2019-05-11T05:41:14.866Z,9.51
2019-05-11T05:43:46.095Z,9.55
2019-05-11T05:46:17.375Z,9.37
2019-05-11T05:48:48.599Z,9.50
2019-05-11T05:51:19.875Z,9.60
2019-05-11T05:53:51.072Z,9.59
2019-05-11T05:56:22.325Z,9.65
2019-05-11T05:58:53.557Z,9.68
2019-05-11T06:01:24.734Z,9.73
2019-05-11T06:03:55.971Z,9.76
2019-05-11T06:06:27.205Z,9.70
2019-05-11T06:08:58.438Z,9.73
2019-05-11T06:11:29.666Z,9.72
2019-05-11T06:14:00.850Z,9.77
2019-05-11T06:16:32.165Z,9.94
2019-05-11T06:19:03.419Z,10.01
2019-05-11T06:21:34.588Z,10.09
2019-05-11T06:24:08.133Z,10.22
2019-05-11T06:26:38.767Z,10.45
2019-05-11T06:29:10.018Z,10.82
2019-05-11T06:31:41.311Z,10.95
2019-05-11T06:34:12.511Z,11.34
2019-05-11T06:36:43.812Z,11.72
2019-05-11T06:39:15.024Z,12.07
2019-05-11T06:41:46.299Z,12.13
2019-05-11T06:44:17.521Z,12.38
2019-05-11T06:46:48.789Z,12.60
2019-05-11T06:49:20.128Z,12.80
2019-05-11T06:51:52.367Z,12.49
2019-05-11T06:54:23.592Z,11.96
2019-05-11T06:56:54.869Z,12.07
2019-05-11T06:59:26.111Z,11.91
2019-05-11T07:01:57.380Z,11.78
2019-05-11T07:04:28.533Z,11.87
2019-05-11T07:06:59.800Z,11.73
2019-05-11T07:09:31.098Z,11.87
2019-05-11T07:12:02.503Z,11.87
2019-05-11T07:14:33.790Z,12.07
2019-05-11T07:17:05.053Z,12.37
2019-05-11T07:19:36.286Z,12.40
2019-05-11T07:22:07.533Z,12.48
2019-05-11T07:24:38.756Z,12.69
2019-05-11T07:27:09.993Z,12.54
2019-05-11T07:29:41.130Z,12.73
2019-05-11T07:32:22.079Z,12.62
2019-05-11T07:34:45.358Z,12.81
2019-05-11T07:37:18.501Z,12.59
2019-05-11T07:39:49.625Z,12.43
2019-05-11T07:42:20.925Z,12.64
2019-05-11T07:44:52.151Z,12.49
2019-05-11T07:47:23.427Z,12.50
2019-05-11T07:49:54.677Z,12.54
2019-05-11T07:52:25.937Z,12.45
2019-05-11T07:54:58.039Z,12.52
2019-05-11T07:57:29.452Z,12.77
2019-05-11T08:00:00.709Z,12.66
2019-05-11T08:02:32.500Z,12.75
2019-05-11T08:05:03.868Z,12.87
2019-05-11T08:07:35.127Z,13.21
2019-05-11T08:10:08.212Z,13.00
2019-05-11T08:12:39.643Z,13.04
2019-05-11T08:15:13.589Z,13.50
2019-05-11T08:17:44.097Z,13.66
2019-05-11T08:20:15.645Z,13.88
2019-05-11T08:22:48.194Z,14.06
2019-05-11T08:25:19.729Z,13.96
2019-05-11T08:27:50.956Z,13.19
2019-05-11T08:30:22.356Z,13.12
2019-05-11T08:32:53.610Z,13.13
2019-05-11T08:35:28.532Z,13.12
2019-05-11T08:37:58.471Z,13.79
2019-05-11T08:40:29.753Z,14.18
2019-05-11T08:43:01.013Z,14.18
2019-05-11T08:45:32.199Z,14.06
2019-05-11T08:48:03.549Z,13.94
2019-05-11T08:50:34.827Z,13.92
2019-05-11T08:53:08.430Z,13.91
2019-05-11T08:55:39.042Z,14.00
2019-05-11T08:58:10.335Z,13.84
2019-05-11T09:00:41.593Z,14.33
2019-05-11T09:03:12.892Z,14.73
2019-05-11T09:05:44.170Z,14.97
2019-05-11T09:08:15.436Z,15.05
2019-05-11T09:10:48.831Z,14.88
2019-05-11T09:13:19.561Z,15.06
2019-05-11T09:15:50.735Z,14.51
2019-05-11T09:18:22.011Z,14.03
2019-05-11T09:20:53.274Z,13.53
2019-05-11T09:23:34.726Z,13.26
2019-05-11T09:25:58.336Z,13.12
2019-05-11T09:28:29.969Z,13.35
2019-05-11T09:31:01.131Z,13.56
2019-05-11T09:33:32.378Z,13.72
2019-05-11T09:36:03.641Z,13.90
2019-05-11T09:38:34.920Z,14.04
2019-05-11T09:41:08.958Z,14.26
2019-05-11T09:43:39.086Z,14.32
2019-05-11T09:46:10.245Z,14.86
2019-05-11T09:48:41.404Z,14.94
2019-05-11T09:51:12.543Z,14.66
2019-05-11T09:53:48.291Z,14.81
2019-05-11T09:56:19.910Z,14.94
2019-05-11T09:58:51.141Z,15.19
2019-05-11T10:01:22.379Z,14.90
2019-05-11T10:03:53.530Z,14.63
2019-05-11T10:06:24.676Z,14.52
2019-05-11T10:08:57.923Z,14.25
2019-05-11T10:11:28.944Z,14.33
2019-05-11T10:14:00.077Z,14.11
2019-05-11T10:16:31.500Z,14.16
2019-05-11T10:19:02.675Z,14.55
2019-05-11T10:21:33.949Z,14.24
2019-05-11T10:24:05.138Z,14.13
2019-05-11T10:26:38.486Z,13.97
2019-05-11T10:29:09.241Z,14.09
2019-05-11T10:31:40.519Z,14.40
2019-05-11T10:34:11.706Z,14.82
2019-05-11T10:36:42.916Z,14.75
2019-05-11T10:39:14.116Z,14.74
2019-05-11T10:41:47.807Z,14.12
2019-05-11T10:44:18.887Z,14.13
2019-05-11T10:46:50.287Z,14.30
2019-05-11T10:49:21.832Z,14.30
2019-05-11T10:51:53.088Z,15.00
2019-05-11T10:54:24.272Z,15.46
2019-05-11T10:56:57.737Z,15.73
2019-05-11T10:59:28.538Z,16.08
2019-05-11T11:01:59.791Z,16.16
2019-05-11T11:04:30.943Z,16.02
2019-05-11T11:07:02.109Z,16.39
2019-05-11T11:09:33.265Z,15.79
2019-05-11T11:12:04.546Z,15.42
2019-05-11T11:14:37.717Z,15.48
2019-05-11T11:17:08.911Z,15.68
2019-05-11T11:19:40.068Z,16.06
2019-05-11T11:22:35.061Z,15.98
2019-05-11T11:24:44.133Z,15.01
2019-05-11T11:27:15.517Z,15.12
2019-05-11T11:29:47.581Z,15.18
2019-05-11T11:32:18.882Z,15.03
2019-05-11T11:34:50.144Z,14.81
2019-05-11T11:37:21.355Z,14.59
2019-05-11T11:39:52.585Z,14.93
2019-05-11T11:42:23.841Z,14.51
2019-05-11T11:44:54.999Z,14.38
2019-05-11T11:47:28.103Z,14.56
2019-05-11T11:49:59.061Z,14.48
2019-05-11T11:52:30.270Z,14.23
2019-05-11T11:55:01.398Z,14.20
2019-05-11T11:57:32.627Z,14.11
2019-05-11T12:00:03.916Z,14.23
2019-05-11T12:02:35.071Z,14.15
2019-05-11T12:05:08.849Z,13.67
2019-05-11T12:07:39.851Z,13.43
2019-05-11T12:10:13.196Z,13.48
2019-05-11T12:12:44.388Z,13.46
2019-05-11T12:15:17.782Z,13.46
2019-05-11T12:17:49.202Z,13.49
2019-05-11T12:20:20.521Z,13.45
2019-05-11T12:22:51.762Z,13.49
2019-05-11T12:25:22.965Z,13.46
2019-05-11T12:27:54.126Z,13.45
2019-05-11T12:30:25.532Z,13.32
2019-05-11T12:32:57.713Z,13.57
2019-05-11T12:35:29.661Z,13.80
2019-05-11T12:38:00.915Z,14.39
2019-05-11T12:40:32.144Z,14.64
2019-05-11T12:43:03.388Z,14.74
2019-05-11T12:45:34.611Z,14.95
2019-05-11T12:48:05.967Z,15.09
2019-05-11T12:50:37.888Z,15.01
2019-05-11T12:53:09.342Z,15.39
2019-05-11T12:55:40.562Z,14.80
2019-05-11T12:58:11.823Z,14.65
2019-05-11T13:00:43.081Z,15.28
2019-05-11T13:03:14.334Z,15.52
2019-05-11T13:05:45.577Z,15.74
2019-05-11T13:08:18.468Z,15.47
2019-05-11T13:10:49.624Z,15.79
2019-05-11T13:13:20.953Z,15.61
2019-05-11T13:15:52.113Z,15.69
2019-05-11T13:18:23.388Z,16.21
2019-05-11T13:20:54.461Z,15.98
2019-05-11T13:23:27.642Z,15.15
2019-05-11T13:25:58.661Z,15.43
2019-05-11T13:28:29.940Z,15.58
2019-05-11T13:31:01.165Z,15.73
2019-05-11T13:33:32.415Z,16.03
2019-05-11T13:36:03.662Z,16.40
2019-05-11T13:38:34.917Z,16.11
2019-05-11T13:41:07.960Z,15.70
2019-05-11T13:43:39.462Z,15.12
2019-05-11T13:46:10.997Z,14.99
2019-05-11T13:48:42.394Z,15.00
2019-05-11T13:51:13.635Z,14.91
2019-05-11T13:53:44.793Z,14.93
2019-05-11T13:56:17.643Z,15.20
2019-05-11T13:58:49.032Z,15.69
2019-05-11T14:01:20.185Z,16.04
2019-05-11T14:03:51.454Z,16.20
2019-05-11T14:06:23.157Z,16.48
2019-05-11T14:08:54.325Z,16.83
2019-05-11T14:11:25.453Z,16.87
2019-05-11T14:13:58.465Z,16.33
2019-05-11T14:16:29.611Z,15.52
2019-05-11T14:19:00.862Z,14.89
2019-05-11T14:21:32.262Z,14.56
2019-05-11T14:24:03.461Z,14.58
2019-05-11T14:26:34.603Z,14.40
2019-05-11T14:29:05.772Z,14.08
2019-05-11T14:31:38.832Z,14.12
2019-05-11T14:34:10.320Z,14.50
2019-05-11T14:36:41.448Z,14.89
2019-05-11T14:39:12.697Z,14.95
2019-05-11T14:41:43.918Z,15.26
2019-05-11T14:44:15.191Z,15.53
2019-05-11T14:46:47.792Z,15.67
2019-05-11T14:49:19.231Z,15.84
2019-05-11T14:51:50.477Z,16.26
2019-05-11T14:54:21.944Z,16.05
2019-05-11T14:56:53.239Z,15.51
2019-05-11T14:59:58.465Z,15.29
2019-05-11T15:02:49.072Z,15.06
2019-05-11T15:05:21.903Z,14.99
2019-05-11T15:07:53.308Z,15.02
2019-05-11T15:10:24.696Z,15.40
2019-05-11T15:12:55.984Z,16.42
2019-05-11T15:15:27.918Z,17.86
2019-05-11T15:17:59.821Z,18.42
2019-05-11T15:20:31.075Z,17.82
2019-05-11T15:23:02.287Z,17.31
2019-05-11T15:25:33.444Z,16.53
2019-05-11T15:28:04.704Z,16.35
2019-05-11T15:30:37.864Z,16.06
2019-05-11T15:33:08.867Z,17.01
2019-05-11T15:35:40.097Z,18.15
2019-05-11T15:38:11.436Z,18.29
2019-05-11T15:40:42.645Z,17.24
2019-05-11T15:43:13.853Z,16.23
2019-05-11T15:45:45.193Z,15.73
2019-05-11T15:48:18.483Z,15.31
2019-05-11T15:50:49.334Z,14.99
2019-05-11T15:53:20.629Z,14.93
2019-05-11T15:55:51.859Z,14.96
2019-05-11T15:58:23.004Z,15.19
2019-05-11T16:00:54.236Z,16.55
2019-05-11T16:03:25.586Z,18.13
2019-05-11T16:05:58.266Z,18.88
2019-05-11T16:08:29.608Z,18.00
2019-05-11T16:11:00.883Z,17.72
2019-05-11T16:13:32.213Z,18.10
2019-05-11T16:16:03.482Z,18.35
2019-05-11T16:18:34.790Z,18.29
2019-05-11T16:21:07.641Z,18.03
2019-05-11T16:23:39.085Z,17.16
2019-05-11T16:26:10.218Z,16.65
2019-05-11T16:28:41.487Z,16.49
2019-05-11T16:31:12.739Z,16.14
2019-05-11T16:33:44.075Z,16.08
2019-05-11T16:36:17.882Z,15.94
2019-05-11T16:38:48.425Z,16.29
2019-05-11T16:41:21.073Z,16.43
2019-05-11T16:43:52.542Z,16.47
2019-05-11T16:46:23.825Z,16.20
2019-05-11T16:48:55.035Z,15.94
2019-05-11T16:51:28.247Z,16.03
2019-05-11T16:53:59.143Z,16.01
2019-05-11T16:56:30.385Z,15.94
2019-05-11T16:59:01.617Z,15.85
2019-05-11T17:01:32.885Z,15.71
2019-05-11T17:04:04.540Z,15.65
2019-05-11T17:06:38.316Z,15.49
2019-05-11T17:09:09.129Z,15.39
2019-05-11T17:11:42.923Z,15.30
2019-05-11T17:14:14.245Z,15.20
2019-05-11T17:16:47.630Z,15.10
2019-05-11T17:19:19.910Z,15.11
2019-05-11T17:21:51.158Z,15.12
2019-05-11T17:24:22.326Z,15.05
2019-05-11T17:26:53.605Z,15.01
2019-05-11T17:29:24.889Z,14.90
2019-05-11T17:31:57.962Z,14.90
2019-05-11T17:34:29.085Z,14.86
2019-05-11T17:37:00.433Z,14.77
2019-05-11T17:39:31.727Z,14.78
2019-05-11T17:42:03.049Z,14.80
2019-05-11T17:44:37.859Z,14.67
2019-05-11T17:47:09.334Z,14.59
2019-05-11T17:49:56.422Z,14.60
2019-05-11T17:52:18.933Z,14.53
2019-05-11T17:54:55.063Z,14.38
2019-05-11T17:57:27.589Z,14.27
2019-05-11T17:59:58.308Z,14.27
2019-05-11T18:02:29.633Z,14.19
2019-05-11T18:05:00.822Z,14.10
2019-05-11T18:07:33.057Z,14.04
2019-05-11T18:10:04.477Z,13.92
2019-05-11T18:12:35.797Z,13.83
2019-05-11T18:15:09.209Z,13.76
2019-05-11T18:17:48.156Z,13.74
2019-05-11T18:20:21.951Z,13.64
2019-05-11T18:22:52.993Z,13.55
2019-05-11T18:25:24.168Z,13.45
2019-05-11T18:27:55.447Z,13.35
2019-05-11T18:30:29.100Z,13.23
2019-05-11T18:32:59.683Z,13.10
2019-05-11T18:35:30.845Z,13.00
2019-05-11T18:38:02.150Z,12.91
2019-05-11T18:40:33.408Z,12.84
2019-05-11T18:43:04.727Z,12.74
2019-05-11T18:45:38.198Z,12.61
2019-05-11T18:48:09.105Z,12.54
2019-05-11T18:50:40.361Z,12.45
2019-05-11T18:53:11.623Z,12.34
2019-05-11T18:55:42.890Z,12.28
2019-05-11T18:58:14.174Z,12.24
2019-05-11T19:00:45.432Z,12.17
2019-05-11T19:03:19.025Z,12.08
2019-05-11T19:05:49.622Z,11.97
2019-05-11T19:08:20.907Z,11.90
2019-05-11T19:10:52.188Z,11.75
2019-05-11T19:13:23.479Z,11.65
2019-05-11T19:15:54.693Z,11.62
2019-05-11T19:18:27.996Z,11.57
2019-05-11T19:20:58.889Z,11.55
2019-05-11T19:23:30.156Z,11.36
2019-05-11T19:26:01.444Z,11.32
2019-05-11T19:28:32.696Z,11.23
2019-05-11T19:31:03.915Z,11.15
2019-05-11T19:33:35.219Z,11.07
2019-05-11T19:36:07.896Z,10.98
2019-05-11T19:38:39.249Z,10.97
2019-05-11T19:41:10.540Z,10.93
2019-05-11T19:43:41.802Z,10.81
2019-05-11T19:46:13.103Z,10.76
2019-05-11T19:48:44.338Z,10.73
2019-05-11T19:51:15.625Z,10.66
2019-05-11T19:53:48.408Z,10.47
2019-05-11T19:56:19.772Z,10.41
2019-05-11T19:58:51.095Z,10.38
2019-05-11T20:01:22.417Z,10.33
2019-05-11T20:03:53.780Z,10.31
2019-05-11T20:06:25.035Z,10.25
2019-05-11T20:08:58.081Z,10.07
2019-05-11T20:11:29.535Z,9.99
2019-05-11T20:14:00.782Z,10.00
2019-05-11T20:16:32.045Z,9.99
2019-05-11T20:19:03.329Z,9.87
2019-05-11T20:21:34.601Z,9.83
2019-05-11T20:24:08.554Z,9.73
2019-05-11T20:26:41.536Z,9.72
2019-05-11T20:29:12.793Z,9.64
2019-05-11T20:31:44.182Z,9.58
2019-05-11T20:34:15.426Z,9.51
2019-05-11T20:36:48.976Z,9.52
2019-05-11T20:39:20.128Z,9.37
2019-05-11T20:41:51.389Z,9.31
2019-05-11T20:44:22.736Z,9.33
2019-05-11T20:46:54.047Z,9.34
2019-05-11T20:49:25.333Z,9.29
2019-05-11T20:51:59.739Z,9.29
2019-05-11T20:54:30.935Z,9.18
2019-05-11T20:57:02.133Z,9.07
2019-05-11T20:59:33.381Z,8.95
2019-05-11T21:02:04.814Z,8.96
2019-05-11T21:04:38.470Z,8.90
2019-05-11T21:07:08.943Z,8.76
2019-05-11T21:09:40.177Z,8.77
2019-05-11T21:12:13.553Z,8.74
2019-05-11T21:14:48.503Z,8.75
2019-05-11T21:17:19.854Z,8.71
2019-05-11T21:19:51.086Z,8.72
2019-05-11T21:22:22.345Z,8.75
2019-05-11T21:24:53.497Z,8.73
2019-05-11T21:27:24.713Z,8.74
2019-05-11T21:29:58.284Z,8.66
2019-05-11T21:32:28.903Z,8.60
2019-05-11T21:35:01.129Z,8.57
2019-05-11T21:37:32.367Z,8.53
2019-05-11T21:40:03.749Z,8.40
2019-05-11T21:42:34.972Z,8.34
2019-05-11T21:45:09.127Z,8.29
2019-05-11T21:47:39.872Z,8.29
2019-05-11T21:50:14.771Z,8.26
2019-05-11T21:52:48.276Z,8.19
2019-05-11T21:55:18.929Z,8.12
2019-05-11T21:57:50.183Z,8.12
2019-05-11T22:00:27.982Z,8.01
2019-05-11T22:02:58.674Z,7.90
2019-05-11T22:05:29.873Z,7.89
2019-05-11T22:08:01.041Z,7.92
2019-05-11T22:10:32.350Z,7.81
2019-05-11T22:13:03.685Z,7.78
2019-05-11T22:15:34.901Z,7.66
2019-05-11T22:18:08.032Z,7.58
2019-05-11T22:20:40.956Z,7.58
2019-05-11T22:23:11.888Z,7.55
2019-05-11T22:25:43.186Z,7.60
2019-05-11T22:28:14.348Z,7.47
2019-05-11T22:30:45.523Z,7.48
2019-05-11T22:33:17.755Z,7.44
2019-05-11T22:35:49.033Z,7.44
2019-05-11T22:38:20.264Z,7.44
2019-05-11T22:40:51.515Z,7.21
2019-05-11T22:43:22.692Z,7.16
2019-05-11T22:45:53.937Z,7.03
2019-05-11T22:48:25.135Z,7.01
2019-05-11T22:50:58.501Z,7.06
2019-05-11T22:53:43.623Z,6.98
2019-05-11T22:56:02.129Z,6.89
2019-05-11T22:58:33.391Z,6.86
2019-05-11T23:01:04.633Z,6.70
2019-05-11T23:03:38.188Z,6.65
2019-05-11T23:06:08.812Z,6.59
2019-05-11T23:08:40.050Z,6.61
2019-05-11T23:11:11.403Z,6.63
2019-05-11T23:13:42.614Z,6.59
2019-05-11T23:16:13.901Z,6.58
2019-05-11T23:18:45.112Z,6.62
2019-05-11T23:21:16.376Z,6.69
2019-05-11T23:23:47.896Z,6.63
2019-05-11T23:26:19.188Z,6.57
2019-05-11T23:28:50.455Z,6.70
2019-05-11T23:31:21.700Z,6.48
2019-05-11T23:33:52.905Z,6.37
2019-05-11T23:36:24.119Z,6.34
2019-05-11T23:38:55.379Z,6.27
2019-05-11T23:41:28.785Z,6.19
2019-05-11T23:43:59.501Z,6.13
2019-05-11T23:46:30.767Z,6.13
2019-05-11T23:49:02.026Z,6.18
2019-05-11T23:51:33.237Z,6.19
2019-05-11T23:54:04.520Z,6.26
2019-05-11T23:56:35.763Z,6.43
2019-05-11T23:59:08.290Z,6.32
